createdAt,value
2018-09-26T00:00:13.357Z,20.83
2018-09-26T00:00:45.638Z,20.84
2018-09-26T00:01:17.794Z,20.83
2018-09-26T00:01:49.882Z,20.84
2018-09-26T00:02:22.007Z,20.84
2018-09-26T00:02:54.218Z,20.84
2018-09-26T00:03:26.579Z,20.83
2018-09-26T00:03:58.874Z,20.83
2018-09-26T00:04:31.199Z,20.85
2018-09-26T00:05:03.289Z,20.85
2018-09-26T00:05:35.476Z,20.85
2018-09-26T00:06:07.852Z,20.83
2018-09-26T00:06:40.061Z,20.84
2018-09-26T00:07:12.212Z,20.84
2018-09-26T00:07:44.333Z,20.84
2018-09-26T00:08:16.508Z,20.84
2018-09-26T00:08:48.732Z,20.83
2018-09-26T00:09:20.856Z,20.81
2018-09-26T00:09:53.087Z,20.83
2018-09-26T00:10:25.427Z,20.82
2018-09-26T00:10:57.544Z,20.83
2018-09-26T00:11:29.851Z,20.82
2018-09-26T00:12:02.103Z,20.82
2018-09-26T00:12:34.236Z,20.82
2018-09-26T00:13:06.427Z,20.82
2018-09-26T00:13:38.568Z,20.83
2018-09-26T00:14:10.748Z,20.82
2018-09-26T00:14:42.919Z,20.83
2018-09-26T00:15:15.092Z,20.83
2018-09-26T00:15:47.471Z,20.83
2018-09-26T00:16:19.562Z,20.82
2018-09-26T00:16:51.688Z,20.82
2018-09-26T00:17:23.955Z,20.82
2018-09-26T00:17:56.069Z,20.83
2018-09-26T00:18:28.204Z,20.82
2018-09-26T00:19:00.479Z,20.82
2018-09-26T00:19:32.648Z,20.80
2018-09-26T00:20:05.030Z,20.80
2018-09-26T00:20:37.169Z,20.80
2018-09-26T00:21:09.309Z,20.81
2018-09-26T00:21:41.426Z,20.81
2018-09-26T00:22:13.523Z,20.83
2018-09-26T00:22:45.820Z,20.81
2018-09-26T00:23:17.901Z,20.82
2018-09-26T00:23:50.313Z,20.81
2018-09-26T00:24:22.468Z,20.80
2018-09-26T00:24:54.760Z,20.81
2018-09-26T00:25:26.940Z,20.80
2018-09-26T00:25:59.233Z,20.80
2018-09-26T00:26:31.711Z,20.81
2018-09-26T00:27:03.870Z,20.80
2018-09-26T00:27:36.103Z,20.80
2018-09-26T00:28:08.392Z,20.80
2018-09-26T00:28:40.795Z,20.81
2018-09-26T00:29:13.100Z,20.81
2018-09-26T00:29:45.232Z,20.81
2018-09-26T00:30:17.488Z,20.81
2018-09-26T00:30:49.648Z,20.80
2018-09-26T00:31:21.899Z,20.81
2018-09-26T00:31:54.095Z,20.80
2018-09-26T00:32:26.268Z,20.80
2018-09-26T00:32:58.343Z,20.80
2018-09-26T00:33:30.434Z,20.80
2018-09-26T00:34:02.703Z,20.80
2018-09-26T00:34:34.937Z,20.79
2018-09-26T00:35:07.097Z,20.79
2018-09-26T00:35:39.461Z,20.80
2018-09-26T00:36:11.700Z,20.80
2018-09-26T00:36:43.741Z,20.81
2018-09-26T00:37:15.870Z,20.80
2018-09-26T00:37:48.209Z,20.80
2018-09-26T00:38:20.341Z,20.80
2018-09-26T00:38:52.560Z,20.79
2018-09-26T00:39:24.713Z,20.79
2018-09-26T00:39:56.806Z,20.79
2018-09-26T00:40:28.927Z,20.78
2018-09-26T00:41:01.075Z,20.79
2018-09-26T00:41:33.644Z,20.79
2018-09-26T00:42:05.872Z,20.78
2018-09-26T00:42:38.090Z,20.77
2018-09-26T00:43:10.260Z,20.78
2018-09-26T00:43:42.567Z,20.77
2018-09-26T00:44:14.722Z,20.78
2018-09-26T00:44:46.876Z,20.78
2018-09-26T00:45:19.220Z,20.78
2018-09-26T00:45:51.323Z,20.77
2018-09-26T00:46:23.515Z,20.78
2018-09-26T00:46:55.822Z,20.77
2018-09-26T00:47:28.063Z,20.76
2018-09-26T00:48:00.211Z,20.78
2018-09-26T00:48:32.494Z,20.78
2018-09-26T00:49:04.640Z,20.78
2018-09-26T00:49:36.719Z,20.77
2018-09-26T00:50:08.833Z,20.78
2018-09-26T00:50:40.998Z,20.78
2018-09-26T00:51:13.240Z,20.78
2018-09-26T00:51:45.412Z,20.78
2018-09-26T00:52:17.540Z,20.77
2018-09-26T00:52:49.769Z,20.78
2018-09-26T00:53:22.071Z,20.78
2018-09-26T00:53:54.350Z,20.78
2018-09-26T00:54:26.687Z,20.77
2018-09-26T00:54:58.768Z,20.77
2018-09-26T00:55:30.926Z,20.77
2018-09-26T00:56:03.037Z,20.77
2018-09-26T00:56:35.159Z,20.77
2018-09-26T00:57:07.286Z,20.78
2018-09-26T00:57:39.493Z,20.77
2018-09-26T00:58:11.853Z,20.77
2018-09-26T00:58:44.084Z,20.77
2018-09-26T00:59:16.169Z,20.77
2018-09-26T00:59:48.388Z,20.77
2018-09-26T01:00:20.599Z,20.77
2018-09-26T01:00:52.810Z,20.76
2018-09-26T01:01:25.149Z,20.76
2018-09-26T01:01:57.481Z,20.77
2018-09-26T01:02:29.649Z,20.77
2018-09-26T01:03:01.990Z,20.76
2018-09-26T01:03:34.238Z,20.76
2018-09-26T01:04:06.419Z,20.77
2018-09-26T01:04:38.728Z,20.77
2018-09-26T01:05:11.185Z,20.76
2018-09-26T01:05:43.417Z,20.77
2018-09-26T01:06:15.722Z,20.77
2018-09-26T01:06:47.800Z,20.75
2018-09-26T01:07:19.964Z,20.76
2018-09-26T01:07:52.169Z,20.75
2018-09-26T01:08:24.278Z,20.75
2018-09-26T01:08:56.453Z,20.76
2018-09-26T01:09:28.637Z,20.76
2018-09-26T01:10:00.897Z,20.77
2018-09-26T01:10:33.055Z,20.76
2018-09-26T01:11:05.542Z,20.76
2018-09-26T01:11:37.624Z,20.75
2018-09-26T01:12:09.870Z,20.75
2018-09-26T01:12:42.121Z,20.74
2018-09-26T01:13:14.399Z,20.75
2018-09-26T01:13:46.486Z,20.75
2018-09-26T01:14:18.834Z,20.75
2018-09-26T01:14:51.161Z,20.75
2018-09-26T01:15:23.363Z,20.74
2018-09-26T01:15:55.575Z,20.74
2018-09-26T01:16:27.922Z,20.73
2018-09-26T01:17:00.341Z,20.74
2018-09-26T01:17:32.676Z,20.74
2018-09-26T01:18:04.811Z,20.73
2018-09-26T01:18:37.052Z,20.73
2018-09-26T01:19:09.302Z,20.75
2018-09-26T01:19:41.431Z,20.74
2018-09-26T01:20:13.670Z,20.73
2018-09-26T01:20:45.804Z,20.74
2018-09-26T01:21:17.932Z,20.74
2018-09-26T01:21:50.242Z,20.74
2018-09-26T01:22:22.587Z,20.73
2018-09-26T01:22:54.932Z,20.74
2018-09-26T01:23:27.061Z,20.74
2018-09-26T01:23:59.313Z,20.73
2018-09-26T01:24:31.394Z,20.73
2018-09-26T01:25:03.654Z,20.73
2018-09-26T01:25:35.810Z,20.72
2018-09-26T01:26:07.965Z,20.72
2018-09-26T01:26:40.154Z,20.73
2018-09-26T01:27:12.268Z,20.71
2018-09-26T01:27:44.461Z,20.72
2018-09-26T01:28:16.638Z,20.73
2018-09-26T01:28:48.952Z,20.71
2018-09-26T01:29:21.050Z,20.71
2018-09-26T01:29:53.443Z,20.71
2018-09-26T01:30:25.700Z,20.72
2018-09-26T01:30:57.822Z,20.71
2018-09-26T01:31:30.161Z,20.70
2018-09-26T01:32:02.271Z,20.70
2018-09-26T01:32:34.380Z,20.72
2018-09-26T01:33:06.512Z,20.71
2018-09-26T01:33:38.690Z,20.71
2018-09-26T01:34:10.889Z,20.71
2018-09-26T01:34:43.042Z,20.70
2018-09-26T01:35:15.159Z,20.71
2018-09-26T01:35:47.311Z,20.70
2018-09-26T01:36:19.430Z,20.71
2018-09-26T01:36:51.555Z,20.70
2018-09-26T01:37:23.752Z,20.71
2018-09-26T01:37:55.829Z,20.71
2018-09-26T01:38:28.278Z,20.70
2018-09-26T01:39:00.367Z,20.69
2018-09-26T01:39:32.492Z,20.69
2018-09-26T01:40:04.614Z,20.69
2018-09-26T01:40:36.833Z,20.70
2018-09-26T01:41:09.352Z,20.69
2018-09-26T01:41:41.541Z,20.69
2018-09-26T01:42:13.712Z,20.69
2018-09-26T01:42:45.942Z,20.69
2018-09-26T01:43:18.116Z,20.68
2018-09-26T01:43:50.219Z,20.68
2018-09-26T01:44:22.377Z,20.69
2018-09-26T01:44:54.785Z,20.67
2018-09-26T01:45:26.918Z,20.68
2018-09-26T01:45:59.180Z,20.69
2018-09-26T01:46:31.461Z,20.67
2018-09-26T01:47:03.565Z,20.68
2018-09-26T01:47:35.713Z,20.68
2018-09-26T01:48:07.843Z,20.69
2018-09-26T01:48:39.967Z,20.68
2018-09-26T01:49:12.147Z,20.68
2018-09-26T01:49:44.253Z,20.68
2018-09-26T01:50:16.350Z,20.67
2018-09-26T01:50:48.592Z,20.68
2018-09-26T01:51:20.715Z,20.67
2018-09-26T01:51:52.962Z,20.68
2018-09-26T01:52:25.160Z,20.68
2018-09-26T01:52:57.295Z,20.68
2018-09-26T01:53:29.442Z,20.68
2018-09-26T01:54:01.614Z,20.68
2018-09-26T01:54:33.762Z,20.68
2018-09-26T01:55:05.935Z,20.68
2018-09-26T01:55:38.150Z,20.68
2018-09-26T01:56:10.483Z,20.68
2018-09-26T01:56:42.670Z,20.67
2018-09-26T01:57:14.867Z,20.68
2018-09-26T01:57:47.215Z,20.67
2018-09-26T01:58:19.552Z,20.68
2018-09-26T01:58:51.656Z,20.68
2018-09-26T01:59:24.124Z,20.67
2018-09-26T01:59:56.296Z,20.66
2018-09-26T02:00:28.479Z,20.67
2018-09-26T02:01:00.642Z,20.67
2018-09-26T02:01:32.922Z,20.66
2018-09-26T02:02:05.272Z,20.66
2018-09-26T02:02:37.455Z,20.65
2018-09-26T02:03:09.581Z,20.65
2018-09-26T02:03:41.746Z,20.66
2018-09-26T02:04:13.968Z,20.64
2018-09-26T02:04:46.114Z,20.64
2018-09-26T02:05:18.414Z,20.65
2018-09-26T02:05:50.539Z,20.65
2018-09-26T02:06:22.654Z,20.65
2018-09-26T02:06:54.749Z,20.66
2018-09-26T02:07:26.933Z,20.66
2018-09-26T02:07:59.165Z,20.66
2018-09-26T02:08:31.426Z,20.66
2018-09-26T02:09:03.578Z,20.65
2018-09-26T02:09:35.773Z,20.65
2018-09-26T02:10:07.876Z,20.65
2018-09-26T02:10:40.116Z,20.65
2018-09-26T02:11:12.223Z,20.66
2018-09-26T02:11:44.363Z,20.65
2018-09-26T02:12:16.520Z,20.64
2018-09-26T02:12:48.628Z,20.65
2018-09-26T02:13:20.880Z,20.64
2018-09-26T02:13:53.041Z,20.64
2018-09-26T02:14:25.260Z,20.64
2018-09-26T02:14:57.433Z,20.64
2018-09-26T02:15:29.652Z,20.64
2018-09-26T02:16:01.902Z,20.64
2018-09-26T02:16:34.028Z,20.64
2018-09-26T02:17:06.252Z,20.65
2018-09-26T02:17:38.365Z,20.64
2018-09-26T02:18:10.701Z,20.63
2018-09-26T02:18:42.933Z,20.64
2018-09-26T02:19:15.229Z,20.62
2018-09-26T02:19:47.402Z,20.62
2018-09-26T02:20:19.474Z,20.63
2018-09-26T02:20:51.633Z,20.62
2018-09-26T02:21:23.747Z,20.62
2018-09-26T02:21:55.900Z,20.62
2018-09-26T02:22:28.313Z,20.63
2018-09-26T02:23:00.593Z,20.61
2018-09-26T02:23:32.811Z,20.62
2018-09-26T02:24:04.923Z,20.61
2018-09-26T02:24:37.220Z,20.62
2018-09-26T02:25:09.383Z,20.61
2018-09-26T02:25:41.683Z,20.63
2018-09-26T02:26:13.834Z,20.62
2018-09-26T02:26:45.943Z,20.62
2018-09-26T02:27:18.126Z,20.63
2018-09-26T02:27:50.324Z,20.62
2018-09-26T02:28:22.424Z,20.62
2018-09-26T02:28:54.622Z,20.60
2018-09-26T02:29:26.957Z,20.60
2018-09-26T02:29:59.114Z,20.60
2018-09-26T02:30:31.407Z,20.61
2018-09-26T02:31:03.564Z,20.59
2018-09-26T02:31:35.665Z,20.60
2018-09-26T02:32:07.904Z,20.59
2018-09-26T02:32:40.064Z,20.58
2018-09-26T02:33:12.403Z,20.57
2018-09-26T02:33:44.586Z,20.57
2018-09-26T02:34:16.722Z,20.56
2018-09-26T02:34:48.915Z,20.58
2018-09-26T02:35:21.023Z,20.58
2018-09-26T02:35:53.373Z,20.59
2018-09-26T02:36:25.526Z,20.57
2018-09-26T02:36:57.717Z,20.57
2018-09-26T02:37:29.873Z,20.58
2018-09-26T02:38:02.252Z,20.58
2018-09-26T02:38:34.383Z,20.58
2018-09-26T02:39:06.502Z,20.56
2018-09-26T02:39:38.620Z,20.57
2018-09-26T02:40:10.708Z,20.56
2018-09-26T02:40:43.034Z,20.57
2018-09-26T02:41:15.273Z,20.58
2018-09-26T02:41:47.394Z,20.57
2018-09-26T02:42:19.565Z,20.58
2018-09-26T02:42:51.725Z,20.57
2018-09-26T02:43:23.864Z,20.56
2018-09-26T02:43:56.331Z,20.57
2018-09-26T02:44:28.556Z,20.57
2018-09-26T02:45:00.753Z,20.57
2018-09-26T02:45:33.015Z,20.55
2018-09-26T02:46:05.234Z,20.56
2018-09-26T02:46:37.455Z,20.56
2018-09-26T02:47:09.566Z,20.56
2018-09-26T02:47:41.795Z,20.55
2018-09-26T02:48:13.939Z,20.54
2018-09-26T02:48:46.244Z,20.55
2018-09-26T02:49:18.485Z,20.55
2018-09-26T02:49:50.703Z,20.55
2018-09-26T02:50:22.809Z,20.55
2018-09-26T02:50:55.132Z,20.55
2018-09-26T02:51:27.307Z,20.56
2018-09-26T02:51:59.667Z,20.55
2018-09-26T02:52:31.778Z,20.55
2018-09-26T02:53:03.917Z,20.55
2018-09-26T02:53:36.144Z,20.55
2018-09-26T02:54:08.543Z,20.54
2018-09-26T02:54:40.703Z,20.53
2018-09-26T02:55:12.950Z,20.54
2018-09-26T02:55:45.315Z,20.54
2018-09-26T02:56:17.404Z,20.53
2018-09-26T02:56:49.580Z,20.53
2018-09-26T02:57:21.717Z,20.52
2018-09-26T02:57:53.815Z,20.53
2018-09-26T02:58:25.964Z,20.52
2018-09-26T02:58:58.055Z,20.53
2018-09-26T02:59:30.164Z,20.52
2018-09-26T03:00:02.278Z,20.51
2018-09-26T03:00:34.505Z,20.53
2018-09-26T03:01:06.680Z,20.51
2018-09-26T03:01:38.826Z,20.52
2018-09-26T03:02:10.921Z,20.52
2018-09-26T03:02:43.013Z,20.52
2018-09-26T03:03:15.100Z,20.52
2018-09-26T03:03:47.245Z,20.53
2018-09-26T03:04:19.374Z,20.53
2018-09-26T03:04:51.625Z,20.53
2018-09-26T03:05:23.737Z,20.54
2018-09-26T03:05:55.939Z,20.53
2018-09-26T03:06:28.253Z,20.53
2018-09-26T03:07:00.455Z,20.52
2018-09-26T03:07:32.549Z,20.53
2018-09-26T03:08:04.658Z,20.53
2018-09-26T03:08:36.749Z,20.53
2018-09-26T03:09:08.821Z,20.52
2018-09-26T03:09:40.918Z,20.53
2018-09-26T03:10:12.991Z,20.53
2018-09-26T03:10:45.283Z,20.52
2018-09-26T03:11:17.412Z,20.53
2018-09-26T03:11:49.505Z,20.53
2018-09-26T03:12:21.634Z,20.53
2018-09-26T03:12:53.903Z,20.52
2018-09-26T03:13:26.054Z,20.51
2018-09-26T03:13:58.310Z,20.51
2018-09-26T03:14:30.373Z,20.52
2018-09-26T03:15:02.593Z,20.52
2018-09-26T03:15:34.659Z,20.51
2018-09-26T03:16:07.398Z,20.51
2018-09-26T03:16:39.633Z,20.51
2018-09-26T03:17:11.746Z,20.51
2018-09-26T03:17:44.062Z,20.51
2018-09-26T03:18:16.117Z,20.50
2018-09-26T03:18:48.284Z,20.52
2018-09-26T03:19:20.512Z,20.51
2018-09-26T03:19:52.664Z,20.52
2018-09-26T03:20:24.749Z,20.53
2018-09-26T03:20:56.861Z,20.51
2018-09-26T03:21:29.081Z,20.52
2018-09-26T03:22:01.168Z,20.50
2018-09-26T03:22:33.233Z,20.50
2018-09-26T03:23:05.583Z,20.50
2018-09-26T03:23:37.773Z,20.51
2018-09-26T03:24:09.841Z,20.51
2018-09-26T03:24:41.952Z,20.51
2018-09-26T03:25:14.056Z,20.51
2018-09-26T03:25:46.388Z,20.51
2018-09-26T03:26:18.598Z,20.51
2018-09-26T03:26:50.747Z,20.51
2018-09-26T03:27:22.829Z,20.51
2018-09-26T03:27:54.915Z,20.51
2018-09-26T03:28:27.272Z,20.51
2018-09-26T03:28:59.620Z,20.49
2018-09-26T03:29:31.698Z,20.51
2018-09-26T03:30:03.945Z,20.52
2018-09-26T03:30:36.052Z,20.51
2018-09-26T03:31:08.163Z,20.51
2018-09-26T03:31:40.308Z,20.51
2018-09-26T03:32:12.426Z,20.51
2018-09-26T03:32:44.555Z,20.50
2018-09-26T03:33:16.689Z,20.51
2018-09-26T03:33:48.846Z,20.51
2018-09-26T03:34:21.089Z,20.50
2018-09-26T03:34:53.314Z,20.49
2018-09-26T03:35:25.416Z,20.50
2018-09-26T03:35:57.536Z,20.51
2018-09-26T03:36:29.725Z,20.51
2018-09-26T03:37:01.849Z,20.51
2018-09-26T03:37:34.185Z,20.51
2018-09-26T03:38:06.317Z,20.50
2018-09-26T03:38:38.397Z,20.51
2018-09-26T03:39:10.468Z,20.51
2018-09-26T03:39:42.569Z,20.51
2018-09-26T03:40:14.678Z,20.52
2018-09-26T03:40:46.972Z,20.51
2018-09-26T03:41:19.115Z,20.51
2018-09-26T03:41:51.212Z,20.51
2018-09-26T03:42:23.346Z,20.51
2018-09-26T03:42:55.468Z,20.50
2018-09-26T03:43:27.743Z,20.50
2018-09-26T03:43:59.827Z,20.50
2018-09-26T03:44:31.931Z,20.50
2018-09-26T03:45:04.117Z,20.50
2018-09-26T03:45:36.276Z,20.50
2018-09-26T03:46:08.408Z,20.50
2018-09-26T03:46:40.543Z,20.51
2018-09-26T03:47:12.781Z,20.49
2018-09-26T03:47:44.957Z,20.50
2018-09-26T03:48:17.169Z,20.50
2018-09-26T03:48:49.305Z,20.50
2018-09-26T03:49:21.431Z,20.50
2018-09-26T03:49:53.526Z,20.50
2018-09-26T03:50:25.641Z,20.49
2018-09-26T03:50:57.780Z,20.50
2018-09-26T03:51:29.892Z,20.51
2018-09-26T03:52:02.022Z,20.51
2018-09-26T03:52:34.300Z,20.50
2018-09-26T03:53:06.609Z,20.50
2018-09-26T03:53:38.690Z,20.49
2018-09-26T03:54:10.835Z,20.49
2018-09-26T03:54:42.978Z,20.49
2018-09-26T03:55:15.276Z,20.49
2018-09-26T03:55:47.398Z,20.49
2018-09-26T03:56:19.846Z,20.49
2018-09-26T03:56:52.009Z,20.48
2018-09-26T03:57:24.086Z,20.49
2018-09-26T03:57:56.447Z,20.48
2018-09-26T03:58:28.556Z,20.49
2018-09-26T03:59:00.694Z,20.49
2018-09-26T03:59:32.913Z,20.48
2018-09-26T04:00:05.072Z,20.49
2018-09-26T04:00:37.208Z,20.49
2018-09-26T04:01:09.346Z,20.49
2018-09-26T04:01:41.516Z,20.49
2018-09-26T04:02:13.604Z,20.49
2018-09-26T04:02:45.731Z,20.49
2018-09-26T04:03:17.856Z,20.49
2018-09-26T04:03:49.954Z,20.49
2018-09-26T04:04:22.139Z,20.48
2018-09-26T04:04:54.485Z,20.49
2018-09-26T04:05:26.813Z,20.49
2018-09-26T04:05:58.933Z,20.48
2018-09-26T04:06:31.034Z,20.49
2018-09-26T04:07:03.141Z,20.48
2018-09-26T04:07:35.266Z,20.48
2018-09-26T04:08:07.392Z,20.47
2018-09-26T04:08:39.514Z,20.47
2018-09-26T04:09:11.632Z,20.47
2018-09-26T04:09:43.746Z,20.46
2018-09-26T04:10:15.880Z,20.47
2018-09-26T04:10:48.200Z,20.47
2018-09-26T04:11:20.471Z,20.47
2018-09-26T04:11:52.562Z,20.47
2018-09-26T04:12:24.764Z,20.46
2018-09-26T04:12:57.077Z,20.48
2018-09-26T04:13:29.246Z,20.46
2018-09-26T04:14:01.346Z,20.46
2018-09-26T04:14:33.530Z,20.48
2018-09-26T04:15:05.579Z,20.48
2018-09-26T04:15:37.911Z,20.49
2018-09-26T04:16:10.164Z,20.47
2018-09-26T04:16:42.368Z,20.48
2018-09-26T04:17:14.612Z,20.48
2018-09-26T04:17:46.730Z,20.47
2018-09-26T04:18:18.916Z,20.48
2018-09-26T04:18:51.205Z,20.47
2018-09-26T04:19:23.307Z,20.47
2018-09-26T04:19:55.393Z,20.45
2018-09-26T04:20:27.565Z,20.46
2018-09-26T04:20:59.693Z,20.45
2018-09-26T04:21:31.846Z,20.46
2018-09-26T04:22:03.976Z,20.46
2018-09-26T04:22:36.107Z,20.46
2018-09-26T04:23:08.243Z,20.45
2018-09-26T04:23:40.976Z,20.45
2018-09-26T04:24:13.052Z,20.47
2018-09-26T04:24:45.186Z,20.46
2018-09-26T04:25:17.298Z,20.46
2018-09-26T04:25:49.393Z,20.47
2018-09-26T04:26:21.696Z,20.46
2018-09-26T04:26:54.324Z,20.45
2018-09-26T04:27:26.591Z,20.45
2018-09-26T04:27:58.623Z,20.45
2018-09-26T04:28:31.101Z,20.46
2018-09-26T04:29:03.531Z,20.45
2018-09-26T04:29:35.653Z,20.45
2018-09-26T04:30:07.794Z,20.45
2018-09-26T04:30:39.935Z,20.44
2018-09-26T04:31:12.049Z,20.44
2018-09-26T04:31:44.231Z,20.44
2018-09-26T04:32:16.525Z,20.44
2018-09-26T04:32:48.939Z,20.44
2018-09-26T04:33:20.974Z,20.43
2018-09-26T04:33:53.045Z,20.44
2018-09-26T04:34:25.290Z,20.43
2018-09-26T04:34:57.439Z,20.43
2018-09-26T04:35:29.711Z,20.43
2018-09-26T04:36:02.012Z,20.43
2018-09-26T04:36:34.204Z,20.44
2018-09-26T04:37:06.326Z,20.43
2018-09-26T04:37:38.505Z,20.43
2018-09-26T04:38:10.620Z,20.43
2018-09-26T04:38:42.779Z,20.43
2018-09-26T04:39:15.076Z,20.43
2018-09-26T04:39:47.137Z,20.43
2018-09-26T04:40:19.314Z,20.43
2018-09-26T04:40:51.470Z,20.43
2018-09-26T04:41:23.773Z,20.43
2018-09-26T04:41:55.882Z,20.43
2018-09-26T04:42:28.055Z,20.43
2018-09-26T04:43:00.154Z,20.42
2018-09-26T04:43:32.409Z,20.43
2018-09-26T04:44:04.711Z,20.41
2018-09-26T04:44:36.986Z,20.41
2018-09-26T04:45:09.276Z,20.42
2018-09-26T04:45:41.385Z,20.42
2018-09-26T04:46:13.504Z,20.42
2018-09-26T04:46:45.643Z,20.42
2018-09-26T04:47:17.811Z,20.41
2018-09-26T04:47:49.994Z,20.42
2018-09-26T04:48:22.093Z,20.42
2018-09-26T04:48:54.174Z,20.41
2018-09-26T04:49:26.509Z,20.42
2018-09-26T04:49:58.947Z,20.41
2018-09-26T04:50:31.128Z,20.41
2018-09-26T04:51:03.241Z,20.41
2018-09-26T04:51:35.347Z,20.42
2018-09-26T04:52:07.424Z,20.41
2018-09-26T04:52:39.508Z,20.43
2018-09-26T04:53:11.613Z,20.42
2018-09-26T04:53:43.698Z,20.42
2018-09-26T04:54:15.792Z,20.42
2018-09-26T04:54:47.857Z,20.41
2018-09-26T04:55:20.098Z,20.41
2018-09-26T04:55:52.199Z,20.41
2018-09-26T04:56:24.363Z,20.39
2018-09-26T04:56:56.536Z,20.41
2018-09-26T04:57:28.665Z,20.40
2018-09-26T04:58:00.959Z,20.41
2018-09-26T04:58:33.038Z,20.41
2018-09-26T04:59:05.165Z,20.40
2018-09-26T04:59:37.298Z,20.40
2018-09-26T05:00:09.387Z,20.40
2018-09-26T05:00:41.663Z,20.38
2018-09-26T05:01:13.737Z,20.38
2018-09-26T05:01:45.834Z,20.38
2018-09-26T05:02:17.949Z,20.39
2018-09-26T05:02:50.070Z,20.38
2018-09-26T05:03:22.309Z,20.38
2018-09-26T05:03:54.387Z,20.39
2018-09-26T05:04:26.562Z,20.38
2018-09-26T05:04:58.800Z,20.38
2018-09-26T05:05:30.894Z,20.38
2018-09-26T05:06:03.059Z,20.38
2018-09-26T05:06:35.139Z,20.38
2018-09-26T05:07:07.354Z,20.38
2018-09-26T05:07:39.509Z,20.39
2018-09-26T05:08:11.769Z,20.40
2018-09-26T05:08:43.840Z,20.38
2018-09-26T05:09:16.009Z,20.40
2018-09-26T05:09:48.070Z,20.41
2018-09-26T05:10:20.190Z,20.41
2018-09-26T05:10:52.321Z,20.39
2018-09-26T05:11:24.438Z,20.40
2018-09-26T05:11:56.533Z,20.40
2018-09-26T05:12:28.678Z,20.41
2018-09-26T05:13:00.782Z,20.39
2018-09-26T05:13:33.045Z,20.40
2018-09-26T05:14:05.133Z,20.40
2018-09-26T05:14:37.360Z,20.40
2018-09-26T05:15:09.475Z,20.41
2018-09-26T05:15:41.743Z,20.40
2018-09-26T05:16:13.863Z,20.41
2018-09-26T05:16:46.021Z,20.39
2018-09-26T05:17:18.134Z,20.39
2018-09-26T05:17:50.247Z,20.39
2018-09-26T05:18:22.359Z,20.39
2018-09-26T05:18:54.567Z,20.38
2018-09-26T05:19:26.725Z,20.39
2018-09-26T05:19:59.002Z,20.40
2018-09-26T05:20:31.132Z,20.39
2018-09-26T05:21:03.495Z,20.39
2018-09-26T05:21:35.846Z,20.39
2018-09-26T05:22:07.985Z,20.40
2018-09-26T05:22:40.148Z,20.40
2018-09-26T05:23:12.527Z,20.39
2018-09-26T05:23:44.591Z,20.40
2018-09-26T05:24:16.824Z,20.39
2018-09-26T05:24:49.045Z,20.40
2018-09-26T05:25:21.163Z,20.40
2018-09-26T05:25:53.264Z,20.39
2018-09-26T05:26:25.513Z,20.38
2018-09-26T05:26:57.618Z,20.38
2018-09-26T05:27:29.771Z,20.38
2018-09-26T05:28:01.859Z,20.38
2018-09-26T05:28:34.026Z,20.39
2018-09-26T05:29:06.238Z,20.38
2018-09-26T05:29:38.430Z,20.38
2018-09-26T05:30:10.668Z,20.38
2018-09-26T05:30:42.908Z,20.37
2018-09-26T05:31:15.300Z,20.37
2018-09-26T05:31:47.424Z,20.37
2018-09-26T05:32:19.710Z,20.36
2018-09-26T05:32:51.849Z,20.37
2018-09-26T05:33:24.088Z,20.37
2018-09-26T05:33:56.225Z,20.36
2018-09-26T05:34:28.332Z,20.36
2018-09-26T05:35:00.656Z,20.36
2018-09-26T05:35:32.737Z,20.36
2018-09-26T05:36:04.886Z,20.35
2018-09-26T05:36:36.990Z,20.37
2018-09-26T05:37:09.099Z,20.36
2018-09-26T05:37:41.234Z,20.36
2018-09-26T05:38:13.346Z,20.36
2018-09-26T05:38:45.462Z,20.38
2018-09-26T05:39:17.583Z,20.38
2018-09-26T05:39:49.747Z,20.38
2018-09-26T05:40:21.887Z,20.39
2018-09-26T05:40:54.018Z,20.38
2018-09-26T05:41:26.170Z,20.38
2018-09-26T05:41:58.399Z,20.38
2018-09-26T05:42:30.529Z,20.38
2018-09-26T05:43:02.734Z,20.38
2018-09-26T05:43:34.825Z,20.38
2018-09-26T05:44:07.042Z,20.39
2018-09-26T05:44:39.337Z,20.39
2018-09-26T05:45:11.418Z,20.37
2018-09-26T05:45:43.604Z,20.38
2018-09-26T05:46:15.765Z,20.39
2018-09-26T05:46:48.014Z,20.38
2018-09-26T05:47:20.196Z,20.38
2018-09-26T05:47:52.368Z,20.38
2018-09-26T05:48:24.463Z,20.38
2018-09-26T05:48:56.629Z,20.38
2018-09-26T05:49:28.724Z,20.38
2018-09-26T05:50:00.859Z,20.38
2018-09-26T05:50:33.032Z,20.37
2018-09-26T05:51:05.185Z,20.38
2018-09-26T05:51:37.396Z,20.37
2018-09-26T05:52:09.474Z,20.37
2018-09-26T05:52:41.606Z,20.37
2018-09-26T05:53:13.870Z,20.36
2018-09-26T05:53:45.979Z,20.38
2018-09-26T05:54:18.181Z,20.37
2018-09-26T05:54:50.306Z,20.37
2018-09-26T05:55:22.613Z,20.38
2018-09-26T05:55:54.738Z,20.38
2018-09-26T05:56:26.825Z,20.37
2018-09-26T05:56:58.939Z,20.37
2018-09-26T05:57:31.110Z,20.38
2018-09-26T05:58:03.249Z,20.37
2018-09-26T05:58:35.390Z,20.38
2018-09-26T05:59:07.501Z,20.38
2018-09-26T05:59:40.005Z,20.36
2018-09-26T06:00:12.276Z,20.37
2018-09-26T06:00:44.588Z,20.37
2018-09-26T06:01:16.682Z,20.36
2018-09-26T06:01:48.834Z,20.35
2018-09-26T06:02:20.958Z,20.36
2018-09-26T06:02:53.222Z,20.36
2018-09-26T06:03:25.404Z,20.36
2018-09-26T06:03:57.497Z,20.36
2018-09-26T06:04:29.637Z,20.36
2018-09-26T06:05:01.844Z,20.37
2018-09-26T06:05:34.172Z,20.37
2018-09-26T06:06:06.222Z,20.36
2018-09-26T06:06:38.324Z,20.37
2018-09-26T06:07:10.420Z,20.36
2018-09-26T06:07:42.662Z,20.37
2018-09-26T06:08:14.804Z,20.36
2018-09-26T06:08:47.005Z,20.37
2018-09-26T06:09:19.239Z,20.36
2018-09-26T06:09:51.497Z,20.37
2018-09-26T06:10:23.726Z,20.36
2018-09-26T06:10:55.889Z,20.35
2018-09-26T06:11:28.001Z,20.36
2018-09-26T06:12:00.171Z,20.36
2018-09-26T06:12:32.390Z,20.36
2018-09-26T06:13:04.608Z,20.35
2018-09-26T06:13:36.652Z,20.36
2018-09-26T06:14:08.770Z,20.36
2018-09-26T06:14:41.086Z,20.35
2018-09-26T06:15:13.508Z,20.35
2018-09-26T06:15:45.674Z,20.35
2018-09-26T06:16:17.763Z,20.34
2018-09-26T06:16:49.869Z,20.35
2018-09-26T06:17:21.978Z,20.34
2018-09-26T06:17:54.125Z,20.36
2018-09-26T06:18:26.434Z,20.34
2018-09-26T06:18:58.688Z,20.35
2018-09-26T06:19:30.782Z,20.36
2018-09-26T06:20:02.877Z,20.35
2018-09-26T06:20:35.034Z,20.34
2018-09-26T06:21:07.186Z,20.34
2018-09-26T06:21:39.635Z,20.34
2018-09-26T06:22:12.105Z,20.34
2018-09-26T06:22:44.310Z,20.34
2018-09-26T06:23:16.449Z,20.34
2018-09-26T06:23:48.558Z,20.33
2018-09-26T06:24:20.801Z,20.34
2018-09-26T06:24:53.042Z,20.33
2018-09-26T06:25:25.207Z,20.33
2018-09-26T06:25:57.478Z,20.33
2018-09-26T06:26:29.583Z,20.33
2018-09-26T06:27:01.783Z,20.34
2018-09-26T06:27:34.105Z,20.32
2018-09-26T06:28:06.245Z,20.33
2018-09-26T06:28:38.358Z,20.32
2018-09-26T06:29:10.476Z,20.33
2018-09-26T06:29:42.729Z,20.32
2018-09-26T06:30:14.894Z,20.32
2018-09-26T06:30:46.994Z,20.32
2018-09-26T06:31:19.137Z,20.32
2018-09-26T06:31:51.278Z,20.33
2018-09-26T06:32:23.435Z,20.34
2018-09-26T06:32:55.602Z,20.33
2018-09-26T06:33:27.735Z,20.34
2018-09-26T06:33:59.897Z,20.32
2018-09-26T06:34:32.057Z,20.33
2018-09-26T06:35:04.307Z,20.31
2018-09-26T06:35:36.329Z,20.31
2018-09-26T06:36:08.433Z,20.32
2018-09-26T06:36:40.570Z,20.31
2018-09-26T06:37:12.739Z,20.31
2018-09-26T06:37:44.862Z,20.31
2018-09-26T06:38:17.027Z,20.30
2018-09-26T06:38:49.129Z,20.32
2018-09-26T06:39:21.393Z,20.32
2018-09-26T06:39:53.513Z,20.32
2018-09-26T06:40:25.701Z,20.32
2018-09-26T06:40:57.778Z,20.32
2018-09-26T06:41:30.051Z,20.32
2018-09-26T06:42:02.174Z,20.31
2018-09-26T06:42:34.248Z,20.33
2018-09-26T06:43:06.342Z,20.33
2018-09-26T06:43:38.692Z,20.32
2018-09-26T06:44:10.799Z,20.34
2018-09-26T06:44:42.985Z,20.32
2018-09-26T06:45:15.096Z,20.33
2018-09-26T06:45:47.259Z,20.33
2018-09-26T06:46:19.460Z,20.33
2018-09-26T06:46:51.623Z,20.32
2018-09-26T06:47:23.777Z,20.33
2018-09-26T06:47:55.861Z,20.32
2018-09-26T06:48:28.081Z,20.32
2018-09-26T06:49:00.181Z,20.32
2018-09-26T06:49:32.352Z,20.33
2018-09-26T06:50:04.440Z,20.32
2018-09-26T06:50:36.552Z,20.33
2018-09-26T06:51:08.747Z,20.34
2018-09-26T06:51:40.846Z,20.34
2018-09-26T06:52:12.965Z,20.33
2018-09-26T06:52:45.089Z,20.34
2018-09-26T06:53:17.342Z,20.33
2018-09-26T06:53:49.431Z,20.34
2018-09-26T06:54:21.630Z,20.34